Terminal Aerodrome Forecast
Issued by NWS Mt. Holly, NJ

Home | Current Version | Previous Version | Text Only | Print | Product List | Glossary On
Versions: 1 2 3 4 5 6 7 8 9 10 11 12 13 14
000
FTUS41 KPHI 231146
TAFRDG
TAF
KRDG 231146Z 2312/2412 VRB03KT 3SM BR OVC003
     FM231400 VRB03KT 5SM BR BKN006
     FM231500 23004KT P6SM BKN025
     FM231700 22006KT P6SM BKN040
     FM232300 VRB03KT P6SM BKN040
     FM240500 VRB03KT 4SM BR BKN015=

USA.gov is the U.S. government's official web portal to all federal, state and local government web resources and services.